Time;durP1;ratioP1;P1;durP2;ratioP2;P2;SDS_P1;SDS_P2;PMS_P1;PMS_P2;Temp;Humidity;BMP_temperature;BMP_pressure;BME280_temperature;BME280_humidity;BME280_pressure;Samples;Min_cycle;Max_cycle;Signal;HPM_P1;HPM_P2
2020/12/01 00:00:08;;;;;;;22.00;11.60;;;;;;;0.40;70.39;100592.34;130128;1091;24668;-74
2020/12/01 00:02:40;;;;;;;22.85;11.40;;;;;;;0.39;71.89;100585.30;130176;1099;23156;-74
2020/12/01 00:05:09;;;;;;;26.65;13.40;;;;;;;0.37;71.05;100587.30;130128;1093;23323;-73
2020/12/01 00:07:42;;;;;;;22.93;11.73;;;;;;;0.37;72.09;100584.62;130221;1099;23239;-74
2020/12/01 00:10:12;;;;;;;22.80;10.85;;;;;;;0.32;71.29;100583.27;130115;1091;24178;-73
2020/12/01 00:12:44;;;;;;;23.53;11.10;;;;;;;0.32;72.23;100585.95;130284;1093;23182;-71
2020/12/01 00:15:16;;;;;;;20.67;10.63;;;;;;;0.32;71.58;100602.04;130168;1098;24195;-70
2020/12/01 00:17:44;;;;;;;18.85;9.55;;;;;;;0.30;72.44;100601.36;125784;1093;23509;-71
2020/12/01 00:20:14;;;;;;;18.03;10.37;;;;;;;0.31;71.72;100607.56;130166;1093;23171;-71
2020/12/01 00:22:45;;;;;;;18.47;9.57;;;;;;;0.29;71.82;100605.05;130220;1099;23908;-71
2020/12/01 00:25:15;;;;;;;19.50;9.87;;;;;;;0.28;72.75;100605.23;130134;1093;23314;-71
2020/12/01 00:27:42;;;;;;;15.97;8.57;;;;;;;0.26;72.16;100609.91;130255;1099;24219;-71
2020/12/01 00:30:22;;;;;;;18.15;10.20;;;;;;;0.23;73.16;100612.92;130109;1093;23306;-71
2020/12/01 00:32:50;;;;;;;17.33;9.27;;;;;;;0.21;72.69;100613.08;130232;1098;23259;-71
2020/12/01 00:35:19;;;;;;;18.80;10.17;;;;;;;0.20;72.45;100610.56;130150;1099;23187;-71
2020/12/01 00:37:46;;;;;;;17.23;9.70;;;;;;;0.18;73.24;100610.72;130233;1093;23165;-71
2020/12/01 00:40:18;;;;;;;20.50;11.17;;;;;;;0.18;73.22;100605.36;130260;1099;23156;-71
2020/12/01 00:42:46;;;;;;;19.53;11.13;;;;;;;0.18;72.63;100604.52;130166;1093;24177;-71
2020/12/01 00:45:14;;;;;;;25.93;12.53;;;;;;;0.18;72.78;100609.88;130208;1091;23150;-71
2020/12/01 00:47:43;;;;;;;22.27;11.23;;;;;;;0.16;73.65;100607.36;130117;1099;23155;-71
2020/12/01 00:50:14;;;;;;;20.70;10.43;;;;;;;0.17;73.11;100601.00;130234;1093;24382;-71
2020/12/01 00:52:42;;;;;;;25.90;12.10;;;;;;;0.15;73.04;100602.16;130101;1093;23182;-71
2020/12/01 00:55:10;;;;;;;17.63;9.57;;;;;;;0.10;74.18;100600.00;130233;1099;23301;-71
2020/12/01 00:57:37;;;;;;;16.25;10.10;;;;;;;0.08;73.35;100602.00;130159;1092;24163;-72
2020/12/01 01:00:07;;;;;;;17.35;9.50;;;;;;;0.07;74.38;100607.52;130192;1093;23595;-73
2020/12/01 01:02:53;;;;;;;16.77;9.70;;;;;;;0.06;73.34;100601.32;129939;1100;23117;-73
2020/12/01 01:05:20;;;;;;;18.50;9.80;;;;;;;0.05;73.74;100601.48;130256;1093;23144;-72
2020/12/01 01:07:54;;;;;;;17.20;10.30;;;;;;;0.04;73.77;100597.13;130156;1099;24450;-72
2020/12/01 01:10:29;;;;;;;16.97;10.80;;;;;;;0.01;74.82;100600.96;130217;1093;23225;-72
2020/12/01 01:12:58;;;;;;;19.97;12.03;;;;;;;0.01;74.95;100603.64;130126;1092;23244;-72
2020/12/01 01:15:28;;;;;;;15.00;9.75;;;;;;;0.00;74.88;100607.35;130205;1098;23333;-72
2020/12/01 01:17:57;;;;;;;15.63;10.13;;;;;;;-0.13;74.56;100585.52;130131;1098;24203;-72
2020/12/01 01:20:25;;;;;;;15.95;9.25;;;;;;;-0.02;74.36;100603.99;130228;1093;24412;-72
2020/12/01 01:22:54;;;;;;;16.03;9.83;;;;;;;-0.04;74.16;100600.63;130128;1092;23216;-72
2020/12/01 01:25:23;;;;;;;16.07;9.57;;;;;;;-0.05;75.07;100610.51;130202;1093;23190;-71
2020/12/01 01:27:51;;;;;;;13.90;8.95;;;;;;;-0.05;75.06;100609.67;130096;1098;23236;-71
2020/12/01 01:30:21;;;;;;;14.17;9.10;;;;;;;-0.06;75.23;100607.98;130234;1099;23162;-71
2020/12/01 01:32:50;;;;;;;15.83;8.63;;;;;;;-0.04;75.22;100609.51;130154;1091;23937;-71
2020/12/01 01:35:18;;;;;;;14.20;8.63;;;;;;;-0.04;75.28;100611.35;130252;1099;23270;-71
2020/12/01 01:37:45;;;;;;;13.73;7.83;;;;;;;-0.04;74.71;100614.03;130117;1093;23240;-71
2020/12/01 01:40:18;;;;;;;16.07;8.73;;;;;;;-0.03;75.32;100616.55;130226;1093;24210;-71
2020/12/01 01:42:46;;;;;;;14.73;8.80;;;;;;;-0.03;75.11;100615.70;130290;1093;24029;-71
2020/12/01 01:45:35;;;;;;;16.20;9.43;;;;;;;-0.03;74.52;100605.83;130189;1093;23267;-71
2020/12/01 01:48:27;;;;;;;;;;;;;;;-0.02;74.87;100606.67;130161;1093;23180;-71
2020/12/01 01:51:00;;;;;;;16.13;9.27;;;;;;;-0.03;75.35;100596.95;130250;1098;21388;-71
2020/12/01 01:53:28;;;;;;;16.03;8.93;;;;;;;-0.06;74.37;100594.59;130042;1092;23197;-72
2020/12/01 01:55:57;;;;;;;18.30;9.33;;;;;;;-0.07;75.15;100599.11;128858;1098;23340;-72
2020/12/01 01:58:30;;;;;;;15.53;8.97;;;;;;;-0.10;75.34;100602.11;130161;1093;23210;-73
2020/12/01 02:01:02;;;;;;;11.57;7.30;;;;;;;-0.13;74.00;100602.43;130224;1092;23169;-72
2020/12/01 02:03:36;;;;;;;13.40;8.50;;;;;;;-0.14;74.58;100607.95;130257;1099;24138;-72
2020/12/01 02:06:05;;;;;;;14.43;7.97;;;;;;;-0.14;75.09;100607.95;130175;1091;24094;-72
2020/12/01 02:08:32;;;;;;;14.73;8.57;;;;;;;-0.14;74.92;100599.91;130148;1093;23211;-72
2020/12/01 02:11:03;;;;;;;12.40;8.40;;;;;;;-0.15;73.94;100595.58;130109;1092;24034;-72
2020/12/01 02:13:38;;;;;;;15.10;9.03;;;;;;;-0.14;74.29;100600.75;130250;1093;24334;-72
2020/12/01 02:16:05;;;;;;;11.00;7.43;;;;;;;-0.14;74.85;100602.59;130119;1099;23146;-72
2020/12/01 02:18:35;;;;;;;14.50;7.60;;;;;;;-0.15;74.69;100603.62;130229;1093;24089;-72
2020/12/01 02:21:30;;;;;;;13.05;7.25;;;;;;;-0.14;74.59;100594.55;130097;1093;23834;-72
2020/12/01 02:23:58;;;;;;;12.20;8.13;;;;;;;-0.15;73.91;100598.27;126117;1098;23376;-72
2020/12/01 02:26:26;;;;;;;11.47;7.57;;;;;;;-0.15;73.61;100598.27;130134;1093;23301;-73
2020/12/01 02:30:15;;;;;;;14.73;8.50;;;;;;;-0.15;73.78;100619.69;125673;1100;23389;-72
2020/12/01 02:32:43;;;;;;;14.37;8.30;;;;;;;-0.15;74.65;100617.02;129890;1100;23200;-73
2020/12/01 02:35:10;;;;;;;15.00;8.10;;;;;;;-0.13;74.49;100623.86;126875;1093;33035;-71
2020/12/01 02:37:40;;;;;;;10.87;6.93;;;;;;;-0.13;74.08;100629.22;125427;1093;26834;-72
2020/12/01 02:40:10;;;;;;;12.07;7.30;;;;;;;-0.12;73.17;100635.41;129839;1100;23249;-73
2020/12/01 02:42:37;;;;;;;13.63;8.10;;;;;;;-0.13;73.59;100642.61;129999;1093;23209;-73
2020/12/01 02:45:06;;;;;;;14.77;7.33;;;;;;;-0.15;73.46;100638.44;130216;1093;23326;-73
2020/12/01 02:47:41;;;;;;;14.63;7.90;;;;;;;-0.16;73.66;100639.44;130170;1093;23162;-73
2020/12/01 02:50:11;;;;;;;16.05;7.30;;;;;;;-0.19;72.86;100645.11;130208;1099;23191;-73
2020/12/01 02:52:38;;;;;;;11.67;7.30;;;;;;;-0.19;72.67;100637.07;130095;1093;23291;-73
2020/12/01 02:55:06;;;;;;;14.03;8.13;;;;;;;-0.19;73.60;100647.79;130232;1099;23203;-73
2020/12/01 02:57:34;;;;;;;12.33;8.07;;;;;;;-0.22;73.73;100635.55;130132;1093;23245;-73
2020/12/01 03:00:01;;;;;;;14.60;8.37;;;;;;;-0.22;72.87;100629.36;130220;1098;23165;-73
2020/12/01 03:02:29;;;;;;;13.70;8.33;;;;;;;-0.23;73.59;100633.87;130115;1093;23206;-72
2020/12/01 03:04:56;;;;;;;10.67;6.70;;;;;;;-0.25;74.05;100641.22;130129;1093;23204;-72
2020/12/01 03:07:23;;;;;;;14.07;7.80;;;;;;;-0.25;73.62;100632.34;130175;1093;23222;-72
2020/12/01 03:09:51;;;;;;;13.57;8.10;;;;;;;-0.24;73.49;100621.48;130059;1099;24843;-72
2020/12/01 03:12:18;;;;;;;9.73;6.97;;;;;;;-0.23;73.68;100619.64;127206;1098;23299;-73
2020/12/01 03:14:47;;;;;;;12.30;7.50;;;;;;;-0.24;74.18;100634.03;127163;1098;23372;-72
2020/12/01 03:17:15;;;;;;;14.03;8.40;;;;;;;-0.24;73.93;100628.67;127143;1093;28778;-72
2020/12/01 03:19:42;;;;;;;13.20;8.20;;;;;;;-0.27;74.01;100645.89;127108;1093;23398;-72
2020/12/01 03:22:09;;;;;;;13.40;8.27;;;;;;;-0.32;73.73;100644.72;127150;1094;23386;-72
2020/12/01 03:24:37;;;;;;;13.93;8.73;;;;;;;-0.34;74.43;100644.03;125819;1093;23431;-72
2020/12/01 03:27:05;;;;;;;12.80;7.90;;;;;;;-0.38;74.74;100641.67;130095;1093;23193;-72
2020/12/01 03:29:32;;;;;;;14.60;8.87;;;;;;;-0.40;74.03;100638.31;130229;1093;23242;-72
2020/12/01 03:31:59;;;;;;;15.23;7.83;;;;;;;-0.40;75.08;100640.14;130261;1093;23190;-72
2020/12/01 03:34:27;;;;;;;14.30;8.17;;;;;;;-0.41;74.11;100641.98;130101;1093;23229;-72
2020/12/01 03:37:04;;;;;;;16.57;9.65;;;;;;;-0.41;74.71;100641.14;130261;1099;23815;-71
2020/12/01 03:39:31;;;;;;;15.30;9.13;;;;;;;-0.44;75.39;100631.62;130127;1093;23179;-71
2020/12/01 03:41:59;;;;;;;15.57;9.13;;;;;;;-0.44;75.05;100641.48;130166;1099;23198;-71
2020/12/01 03:44:29;;;;;;;15.80;9.43;;;;;;;-0.45;74.73;100645.16;130136;1093;23225;-71
2020/12/01 03:46:57;;;;;;;15.00;9.03;;;;;;;-0.48;74.90;100648.98;130242;1093;23247;-71
2020/12/01 03:49:24;;;;;;;14.77;8.93;;;;;;;-0.48;74.93;100648.98;130125;1093;23262;-71
2020/12/01 03:51:52;;;;;;;16.63;9.03;;;;;;;-0.47;75.44;100645.31;130287;1093;23171;-71
2020/12/01 03:54:19;;;;;;;13.70;9.13;;;;;;;-0.46;75.65;100646.16;130167;1093;23273;-71
2020/12/01 03:56:47;;;;;;;14.50;8.93;;;;;;;-0.45;75.92;100643.33;130260;1093;23178;-71
2020/12/01 03:59:19;;;;;;;15.20;9.13;;;;;;;-0.45;74.99;100635.30;130125;1092;23207;-71
2020/12/01 04:01:46;;;;;;;15.23;8.80;;;;;;;-0.45;76.06;100635.30;130164;1093;23163;-71
2020/12/01 04:04:13;;;;;;;18.65;10.80;;;;;;;-0.44;75.67;100636.97;130147;1092;24649;-71
2020/12/01 04:06:44;;;;;;;17.93;9.73;;;;;;;-0.44;75.79;100633.45;130238;1098;24106;-71
2020/12/01 04:09:11;;;;;;;15.90;10.47;;;;;;;-0.45;74.84;100637.13;130077;1093;24243;-71
2020/12/01 04:11:39;;;;;;;13.53;9.17;;;;;;;-0.47;75.05;100626.58;130260;1099;23193;-71
2020/12/01 04:14:07;;;;;;;15.53;9.60;;;;;;;-0.50;75.41;100618.86;130106;1093;23237;-71
2020/12/01 04:16:34;;;;;;;14.10;8.90;;;;;;;-0.49;75.82;100622.38;128528;1093;23518;-71
2020/12/01 04:19:01;;;;;;;13.80;8.77;;;;;;;-0.50;75.77;100631.41;127134;1093;23775;-71
2020/12/01 04:21:29;;;;;;;17.03;9.50;;;;;;;-0.48;75.59;100629.41;130205;1093;23177;-71
2020/12/01 04:23:56;;;;;;;15.27;9.63;;;;;;;-0.48;75.95;100624.06;130270;1093;23280;-72
2020/12/01 04:26:24;;;;;;;17.50;11.17;;;;;;;-0.47;74.76;100631.09;130088;1099;24469;-72
2020/12/01 04:28:53;;;;;;;17.13;9.80;;;;;;;-0.48;75.06;100635.61;130239;1093;23261;-71
2020/12/01 04:31:21;;;;;;;15.43;10.60;;;;;;;-0.51;75.13;100633.24;130141;1099;23296;-72
2020/12/01 04:33:48;;;;;;;19.60;11.67;;;;;;;-0.54;75.85;100638.91;130245;1093;23158;-71
2020/12/01 04:36:16;;;;;;;17.07;11.57;;;;;;;-0.54;75.50;100632.71;130157;1093;23162;-72
2020/12/01 04:38:43;;;;;;;19.57;10.60;;;;;;;-0.54;74.99;100635.39;130293;1098;24229;-72
2020/12/01 04:41:14;;;;;;;18.43;10.80;;;;;;;-0.55;75.49;100623.84;130098;1093;23231;-71
2020/12/01 04:43:44;;;;;;;16.23;10.47;;;;;;;-0.53;76.01;100621.84;130269;1099;23872;-71
2020/12/01 04:46:15;;;;;;;17.23;11.43;;;;;;;-0.54;76.09;100628.20;130098;1092;23148;-72
2020/12/01 04:48:49;;;;;;;17.80;10.60;;;;;;;-0.56;75.16;100624.00;130229;1099;23345;-71
2020/12/01 04:51:30;;;;;;;17.77;10.63;;;;;;;-0.57;75.17;100633.86;130122;1091;23215;-71
2020/12/01 04:54:16;;;;;;;17.83;10.40;;;;;;;-0.59;76.21;100627.02;130206;1093;23971;-72
2020/12/01 04:57:07;;;;;;;17.40;10.97;;;;;;;-0.61;75.49;100637.88;128882;1093;70766;-91
2020/12/01 04:59:47;;;;;;;21.87;11.40;;;;;;;-0.62;76.22;100649.58;129045;1098;23295;-91
2020/12/01 05:02:34;;;;;;;;;;;;;;;-0.60;76.03;100657.45;128516;1093;23344;-92
2020/12/01 05:05:36;;;;;;;19.23;11.00;;;;;;;-0.62;75.51;100654.93;128533;1091;21507;-91
2020/12/01 05:08:49;;;;;;;20.03;10.17;;;;;;;-0.66;75.85;100653.56;128526;1098;23350;-92
2020/12/01 05:11:40;;;;;;;16.20;9.57;;;;;;;-0.66;76.58;100652.72;128885;1093;23425;-92
2020/12/01 05:14:34;;;;;;;17.10;10.45;;;;;;;-0.68;76.79;100660.06;128816;1098;23377;-91
2020/12/01 05:17:14;;;;;;;18.50;10.40;;;;;;;-0.71;76.20;100648.67;128391;1093;24371;-90
2020/12/01 05:19:43;;;;;;;21.43;11.73;;;;;;;-0.74;76.73;100649.02;128448;1093;26902;-90
2020/12/01 05:22:12;;;;;;;26.90;13.83;;;;;;;-0.74;76.54;100650.84;128336;1098;23398;-90
2020/12/01 05:24:46;;;;;;;24.83;12.03;;;;;;;-0.76;77.26;100648.33;128604;1093;23956;-90
2020/12/01 05:27:34;;;;;;;29.57;12.17;;;;;;;-0.76;76.94;100647.48;128616;1093;26785;-90
2020/12/01 05:30:11;;;;;;;26.23;12.95;;;;;;;-0.75;77.20;100655.36;128385;1093;23388;-91
2020/12/01 05:32:44;;;;;;;28.00;14.73;;;;;;;-0.74;76.59;100648.17;128204;1093;26870;-90
2020/12/01 05:35:41;;;;;;;29.53;15.20;;;;;;;-0.71;77.34;100655.86;128550;1098;26083;-91
2020/12/01 05:38:11;;;;;;;;;;;;;;;-0.73;76.54;100657.87;128488;1099;23430;-91
2020/12/01 05:40:49;;;;;;;21.60;12.60;;;;;;;-0.76;77.46;100650.16;128486;1093;24196;-91
2020/12/01 05:43:35;;;;;;;24.10;12.63;;;;;;;-0.75;77.49;100644.66;128973;1093;26136;-89
2020/12/01 05:46:33;;;;;;;24.40;13.53;;;;;;;-0.76;77.42;100651.00;128754;1098;23358;-90
2020/12/01 05:49:21;;;;;;;25.40;11.33;;;;;;;-0.76;77.55;100653.67;128355;1093;23416;-92
2020/12/01 05:52:04;;;;;;;21.63;12.80;;;;;;;-0.76;77.75;100656.35;128309;1093;23342;-92
2020/12/01 05:54:36;;;;;;;23.03;13.30;;;;;;;-0.76;77.53;100650.16;128042;1100;23322;-90
2020/12/01 05:57:17;;;;;;;24.37;13.63;;;;;;;-0.76;77.80;100650.16;128455;1099;23204;-90
2020/12/01 06:00:10;;;;;;;20.20;11.77;;;;;;;-0.78;77.29;100660.17;128265;1093;23351;-91
2020/12/01 06:03:10;;;;;;;25.47;14.80;;;;;;;-0.78;77.64;100654.83;127979;1102;23403;-91
2020/12/01 06:05:38;;;;;;;23.23;13.87;;;;;;;-0.78;77.95;100662.84;128290;1102;28526;-90
2020/12/01 06:08:33;;;;;;;22.83;12.37;;;;;;;-0.78;78.09;100666.37;127831;1103;23346;-90
2020/12/01 06:11:39;;;;;;;23.33;12.70;;;;;;;-0.77;77.44;100664.53;128136;1096;23325;-90
2020/12/01 06:14:18;;;;;;;21.40;13.00;;;;;;;-0.76;77.58;100660.86;128040;1096;23381;-90
2020/12/01 06:16:51;;;;;;;22.97;12.20;;;;;;;-0.77;78.09;100654.67;128297;1097;23334;-89
2020/12/01 06:19:23;;;;;;;18.10;10.77;;;;;;;-0.77;77.34;100652.00;127921;1096;24930;-91
2020/12/01 06:22:34;;;;;;;22.47;12.63;;;;;;;-0.75;77.50;100671.41;128435;1096;23381;-91
2020/12/01 06:25:20;;;;;;;18.47;11.73;;;;;;;-0.78;78.04;100660.17;127913;1096;23528;-91
2020/12/01 06:28:09;;;;;;;19.67;11.20;;;;;;;-0.77;78.41;100668.05;127736;1105;23602;-92
2020/12/01 06:30:59;;;;;;;21.20;10.50;;;;;;;-0.75;77.95;100668.73;127758;1096;24818;-91
2020/12/01 06:33:48;;;;;;;16.95;10.25;;;;;;;-0.72;78.22;100670.23;127703;1100;23407;-91
2020/12/01 06:36:34;;;;;;;17.67;10.13;;;;;;;-0.72;77.96;100675.59;127685;1096;23414;-91
2020/12/01 06:39:16;;;;;;;19.40;10.77;;;;;;;-0.72;78.21;100675.59;127739;1100;23329;-90
2020/12/01 06:41:50;;;;;;;16.70;10.10;;;;;;;-0.71;77.71;100679.94;128170;1093;25112;-91
2020/12/01 06:44:20;;;;;;;17.37;10.40;;;;;;;-0.71;78.44;100685.30;127891;1101;23363;-91
2020/12/01 06:46:58;;;;;;;17.97;10.17;;;;;;;-0.71;78.39;100679.94;127963;1096;23581;-91
2020/12/01 06:49:30;;;;;;;20.57;9.70;;;;;;;-0.70;78.53;100678.95;128163;1096;23435;-90
2020/12/01 06:51:59;;;;;;;17.27;10.60;;;;;;;-0.71;78.36;100672.75;128016;1102;23330;-90
2020/12/01 06:54:26;;;;;;;17.77;11.17;;;;;;;-0.69;78.67;100687.81;128018;1101;23343;-89
2020/12/01 06:57:05;;;;;;;16.50;8.95;;;;;;;-0.71;77.38;100679.94;127862;1097;23310;-90
2020/12/01 06:59:33;;;;;;;18.47;9.83;;;;;;;-0.71;78.08;100682.62;128195;1096;23414;-89
2020/12/01 07:02:05;;;;;;;18.77;10.23;;;;;;;-0.73;78.24;100682.80;128194;1097;23371;-90
2020/12/01 07:04:33;;;;;;;16.73;9.83;;;;;;;-0.73;77.47;100688.16;128049;1093;23346;-90
2020/12/01 07:07:02;;;;;;;14.53;9.63;;;;;;;-0.72;78.62;100688.96;128226;1093;23389;-92
2020/12/01 07:09:33;;;;;;;21.73;11.17;;;;;;;-0.68;78.26;100689.50;128406;1093;23381;-90
2020/12/01 07:12:18;;;;;;;18.07;10.83;;;;;;;-0.66;78.08;100695.53;128254;1093;23381;-91
2020/12/01 07:14:53;;;;;;;25.07;11.87;;;;;;;-0.65;77.45;100698.06;128520;1093;23325;-89
2020/12/01 07:17:20;;;;;;;20.17;10.77;;;;;;;-0.64;78.27;100701.58;128312;1093;23308;-91
2020/12/01 07:19:52;;;;;;;19.17;10.80;;;;;;;-0.64;77.49;100691.71;128344;1092;23300;-89
2020/12/01 07:22:55;;;;;;;21.77;11.53;;;;;;;-0.63;78.35;100701.42;128361;1092;23314;-89
2020/12/01 07:25:53;;;;;;;19.23;10.80;;;;;;;-0.63;77.75;100709.45;128469;1093;23327;-89
2020/12/01 07:28:28;;;;;;;25.40;10.93;;;;;;;-0.63;77.65;100701.42;127747;1093;23391;-93
2020/12/01 07:30:58;;;;;;;19.23;10.97;;;;;;;-0.63;77.44;100698.75;127995;1101;23753;-92
2020/12/01 07:33:34;;;;;;;19.63;10.67;;;;;;;-0.64;77.63;100686.36;128110;1096;23327;-91
2020/12/01 07:36:25;;;;;;;22.80;10.85;;;;;;;-0.64;78.48;100689.03;128047;1096;23388;-89
2020/12/01 07:39:06;;;;;;;19.73;11.00;;;;;;;-0.64;77.62;100686.36;128134;1096;23446;-90
2020/12/01 07:41:34;;;;;;;25.33;10.10;;;;;;;-0.63;77.50;100696.07;128083;1096;26766;-91
2020/12/01 07:44:13;;;;;;;20.57;9.50;;;;;;;-0.63;77.73;100698.75;127954;1096;25223;-91
2020/12/01 07:49:18;;;;;;;16.10;9.20;;;;;;;-0.66;78.29;100690.19;127816;1094;24181;-89
2020/12/01 07:51:46;;;;;;;16.63;8.90;;;;;;;-0.69;78.40;100691.33;127632;1096;23334;-89
2020/12/01 07:54:21;;;;;;;14.07;8.37;;;;;;;-0.69;78.25;100685.98;127887;1096;23397;-92
2020/12/01 07:56:49;;;;;;;14.70;8.93;;;;;;;-0.66;77.66;100687.51;128074;1096;23300;-91
2020/12/01 07:59:17;;;;;;;14.97;8.80;;;;;;;-0.64;77.51;100688.20;127938;1096;23366;-90
2020/12/01 08:01:46;;;;;;;16.63;8.53;;;;;;;-0.65;77.75;100681.16;127769;1096;23676;-90
2020/12/01 08:04:20;;;;;;;16.60;8.20;;;;;;;-0.64;78.56;100685.52;127743;1097;23336;-90
2020/12/01 08:07:02;;;;;;;18.87;9.83;;;;;;;-0.64;77.92;100683.69;128211;1099;23340;-89
2020/12/01 08:09:30;;;;;;;16.60;9.23;;;;;;;-0.62;78.62;100670.98;128051;1093;23325;-91
2020/12/01 08:12:06;;;;;;;16.03;9.47;;;;;;;-0.59;78.54;100684.06;128219;1093;23360;-90
2020/12/01 08:14:34;;;;;;;19.82;9.33;;;;;;;-0.57;78.15;100689.23;128166;1093;23889;-90
2020/12/01 08:17:14;;;;;;;18.50;9.43;;;;;;;-0.61;78.37;100686.05;128311;1093;23456;-90
2020/12/01 08:19:41;;;;;;;21.00;10.10;;;;;;;-0.59;78.44;100688.58;128380;1093;23391;-89
2020/12/01 08:22:09;;;;;;;18.30;9.30;;;;;;;-0.59;78.07;100684.06;128413;1093;23345;-90
2020/12/01 08:24:38;;;;;;;19.50;11.67;;;;;;;-0.58;78.23;100690.25;127924;1093;23311;-92
2020/12/01 08:27:25;;;;;;;14.53;9.20;;;;;;;-0.58;78.12;100690.25;130162;1099;23881;-91
2020/12/01 08:29:53;;;;;;;16.93;10.70;;;;;;;-0.60;78.06;100687.73;128166;1093;24964;-90
2020/12/01 08:32:25;;;;;;;17.20;10.90;;;;;;;-0.57;78.19;100699.94;128158;1093;26501;-91
2020/12/01 08:35:02;;;;;;;18.53;10.10;;;;;;;-0.54;77.71;100689.76;128208;1093;23372;-90
2020/12/01 08:37:53;;;;;;;17.77;9.50;;;;;;;-0.52;77.89;100698.48;128285;1093;23338;-91
2020/12/01 08:40:30;;;;;;;15.17;9.70;;;;;;;-0.52;77.70;100692.28;128172;1093;23354;-91
2020/12/01 08:43:16;;;;;;;17.80;9.53;;;;;;;-0.54;77.84;100692.44;128416;1093;26241;-90
2020/12/01 08:45:46;;;;;;;13.83;8.00;;;;;;;-0.53;77.21;100687.92;128130;1093;23459;-89
2020/12/01 08:48:21;;;;;;;15.63;8.57;;;;;;;-0.54;77.48;100691.59;128241;1093;23992;-91
2020/12/01 08:50:57;;;;;;;14.57;9.13;;;;;;;-0.53;77.77;100687.92;128090;1093;23513;-91
2020/12/01 08:53:25;;;;;;;14.40;8.77;;;;;;;-0.54;77.33;100686.25;128055;1092;23340;-91
2020/12/01 08:55:55;;;;;;;11.27;8.03;;;;;;;-0.55;78.30;100682.73;128161;1092;23392;-90
2020/12/01 08:58:39;;;;;;;14.20;9.00;;;;;;;-0.54;78.09;100681.73;128344;1099;23378;-90
2020/12/01 09:01:11;;;;;;;14.43;8.50;;;;;;;-0.54;77.02;100675.53;128423;1093;23425;-90
2020/12/01 09:04:00;;;;;;;16.20;8.53;;;;;;;-0.53;77.85;100664.67;128639;1098;23338;-92
2020/12/01 09:06:33;;;;;;;15.50;8.50;;;;;;;-0.50;78.19;100668.88;128373;1098;23336;-93
2020/12/01 09:09:12;;;;;;;17.75;8.40;;;;;;;-0.50;77.55;100668.88;129404;1093;23336;-92
2020/12/01 09:11:53;;;;;;;10.93;6.67;;;;;;;-0.49;77.23;100671.40;128367;1093;23328;-91
2020/12/01 09:14:45;;;;;;;12.53;7.57;;;;;;;-0.49;77.30;100675.91;128516;1092;26295;-91
2020/12/01 09:18:04;;;;;;;15.73;7.97;;;;;;;-0.49;77.10;100657.17;128389;1093;23376;-92
2020/12/01 09:21:51;;;;;;;15.63;8.20;;;;;;;-0.47;77.30;100661.38;128445;1098;24120;-90
2020/12/01 09:23:16;;;;;;;12.00;7.17;;;;;;;-0.46;77.20;100654.19;128376;1096;23320;-92
2020/12/01 09:25:47;;;;;;;12.97;7.53;;;;;;;-0.43;77.13;100653.84;128780;1092;23524;-92
2020/12/01 09:28:21;;;;;;;12.47;7.73;;;;;;;-0.43;77.12;100648.48;128412;1093;24000;-91
2020/12/01 09:31:04;;;;;;;11.43;6.73;;;;;;;-0.42;77.84;100642.14;128259;1093;23312;-90
2020/12/01 09:33:34;;;;;;;12.50;6.87;;;;;;;-0.41;77.70;100647.34;128296;1099;24309;-92
2020/12/01 09:36:04;;;;;;;15.40;7.43;;;;;;;-0.41;76.91;100651.85;128496;1093;23508;-94
2020/12/01 09:38:31;;;;;;;17.27;7.00;;;;;;;-0.43;76.84;100649.33;128335;1093;23326;-94
2020/12/01 09:41:02;;;;;;;10.40;5.93;;;;;;;-0.43;76.28;100652.01;128290;1099;23521;-91
2020/12/01 09:43:40;;;;;;;10.27;6.37;;;;;;;-0.44;76.50;100647.69;128818;1098;23321;-92
2020/12/01 09:46:10;;;;;;;11.20;6.27;;;;;;;-0.44;76.69;100636.97;128887;1093;23378;-93
2020/12/01 09:48:42;;;;;;;10.70;6.57;;;;;;;-0.43;76.19;100643.98;128775;1092;23318;-92
2020/12/01 09:51:10;;;;;;;9.77;5.90;;;;;;;-0.42;76.80;100647.49;128662;1092;23317;-91
2020/12/01 09:59:21;;;;;;;13.23;6.57;;;;;;;-0.37;76.27;100637.16;128680;1093;23345;-92
2020/12/01 10:10:19;;;;;;;13.15;7.75;;;;;;;-0.40;76.27;100629.44;125607;1093;23457;-67
2020/12/01 10:13:00;;;;;;;13.03;7.33;;;;;;;-0.39;75.67;100637.31;125802;1093;25092;-67
2020/12/01 10:15:47;;;;;;;12.10;6.63;;;;;;;-0.37;75.82;100632.64;130108;1092;23638;-67
2020/12/01 10:36:41;;;;;;;11.33;6.23;;;;;;;-0.46;77.21;100616.70;130070;1099;23233;-66
2020/12/01 10:39:08;;;;;;;10.47;5.83;;;;;;;-0.48;77.68;100618.70;130195;1092;23237;-66
2020/12/01 10:41:39;;;;;;;16.40;7.20;;;;;;;-0.51;77.85;100614.50;130072;1099;24263;-67
2020/12/01 10:44:07;;;;;;;15.50;7.80;;;;;;;-0.49;77.88;100615.19;130201;1093;23243;-69
2020/12/01 10:46:35;;;;;;;10.57;6.43;;;;;;;-0.45;77.36;100624.59;130038;1093;23259;-66
2020/12/01 10:49:02;;;;;;;8.60;5.43;;;;;;;-0.46;77.19;100616.70;130152;1093;23223;-66
2020/12/01 10:51:32;;;;;;;12.00;6.60;;;;;;;-0.45;77.33;100607.69;130023;1093;23255;-69
2020/12/01 10:54:00;;;;;;;12.47;6.00;;;;;;;-0.44;77.79;100614.72;130172;1093;23237;-67
2020/12/01 10:56:29;;;;;;;13.00;5.87;;;;;;;-0.43;77.14;100614.53;130006;1093;23242;-67
2020/12/01 10:58:57;;;;;;;10.40;6.27;;;;;;;-0.44;77.49;100615.55;130133;1098;23279;-67
2020/12/01 11:01:32;;;;;;;9.70;5.63;;;;;;;-0.45;77.82;100613.87;130058;1093;23326;-69
2020/12/01 11:04:00;;;;;;;16.33;6.13;;;;;;;-0.44;78.10;100615.55;130175;1093;24069;-64
2020/12/01 11:06:30;;;;;;;11.27;7.27;;;;;;;-0.42;77.36;100613.53;130046;1093;24128;-66
2020/12/01 11:08:58;;;;;;;10.77;6.10;;;;;;;-0.41;78.51;100617.89;130152;1094;23150;-70
2020/12/01 11:11:26;;;;;;;9.30;5.63;;;;;;;-0.37;78.66;100607.70;130071;1093;23212;-63
2020/12/01 11:13:53;;;;;;;11.60;6.67;;;;;;;-0.36;77.89;100610.23;130209;1091;23229;-67
2020/12/01 11:16:20;;;;;;;15.17;8.20;;;;;;;-0.32;77.84;100600.04;129960;1093;23955;-68
2020/12/01 11:18:48;;;;;;;15.77;7.00;;;;;;;-0.32;77.55;100600.04;130224;1093;23238;-67
2020/12/01 11:21:15;;;;;;;13.67;7.03;;;;;;;-0.34;78.24;100602.03;130094;1099;23156;-69
2020/12/01 11:23:52;;;;;;;16.43;8.27;;;;;;;-0.33;78.26;100614.42;130214;1093;24761;-68
2020/12/01 11:26:23;;;;;;;12.97;7.40;;;;;;;-0.36;78.19;100606.70;130189;1099;23199;-68
2020/12/01 11:28:51;;;;;;;10.33;6.07;;;;;;;-0.36;78.71;100596.00;130098;1092;23971;-67
2020/12/01 11:31:20;;;;;;;14.63;7.87;;;;;;;-0.33;78.24;100601.04;130200;1093;24292;-67
2020/12/01 11:34:07;;;;;;;17.63;7.90;;;;;;;-0.33;78.81;100597.52;130036;1093;24183;-67
2020/12/01 11:36:35;;;;;;;11.23;6.53;;;;;;;-0.33;78.98;100595.68;130151;1093;23159;-67
2020/12/01 11:39:04;;;;;;;12.23;7.77;;;;;;;-0.33;78.49;100586.81;130075;1099;23290;-67
2020/12/01 11:41:31;;;;;;;15.47;8.07;;;;;;;-0.32;78.60;100599.20;130130;1093;23291;-67
2020/12/01 11:43:59;;;;;;;10.57;6.60;;;;;;;-0.34;78.41;100596.68;130044;1098;23214;-66
2020/12/01 11:46:30;;;;;;;12.43;6.70;;;;;;;-0.34;79.43;100596.68;130172;1093;23215;-67
2020/12/01 11:49:03;;;;;;;13.30;7.40;;;;;;;-0.33;79.30;100589.48;130037;1093;23294;-66
2020/12/01 11:51:43;;;;;;;11.70;7.00;;;;;;;-0.32;79.41;100591.16;130181;1092;23205;-66
2020/12/01 11:54:10;;;;;;;11.60;6.30;;;;;;;-0.31;78.55;100592.84;129990;1093;23231;-66
2020/12/01 11:56:38;;;;;;;9.43;6.07;;;;;;;-0.33;79.16;100586.81;130113;1098;24141;-66
2020/12/01 11:59:05;;;;;;;9.90;6.53;;;;;;;-0.33;78.71;100590.33;129991;1093;23298;-64
2020/12/01 12:01:36;;;;;;;13.83;6.60;;;;;;;-0.32;79.28;100585.81;130187;1093;23174;-67
2020/12/01 12:04:07;;;;;;;8.77;5.53;;;;;;;-0.32;79.64;100591.16;130043;1093;23279;-66
2020/12/01 12:06:35;;;;;;;12.53;6.37;;;;;;;-0.32;79.56;100585.81;130162;1093;24126;-67
2020/12/01 12:09:06;;;;;;;8.90;5.57;;;;;;;-0.31;79.15;100588.33;130002;1092;23173;-68
2020/12/01 12:11:34;;;;;;;10.17;5.80;;;;;;;-0.30;79.59;100575.78;130179;1093;24107;-67
2020/12/01 12:14:02;;;;;;;11.13;6.73;;;;;;;-0.30;79.31;100584.66;130031;1093;23262;-66